createdAt,value
2019-04-11T00:01:44.965Z,8.13
2019-04-11T00:06:41.263Z,8.05
2019-04-11T00:11:44.211Z,8.01
2019-04-11T00:16:46.045Z,7.95
2019-04-11T00:21:48.817Z,7.83
2019-04-11T00:26:50.785Z,7.78
2019-04-11T00:31:52.795Z,7.63
2019-04-11T00:36:54.888Z,7.58
2019-04-11T00:41:56.634Z,7.48
2019-04-11T00:46:58.488Z,7.47
2019-04-11T00:52:00.412Z,7.45
2019-04-11T00:57:01.968Z,7.39
2019-04-11T01:02:05.144Z,7.28
2019-04-11T01:07:06.964Z,7.27
2019-04-11T01:12:08.603Z,7.17
2019-04-11T01:17:10.146Z,7.08
2019-04-11T01:22:11.925Z,7.05
2019-04-11T01:27:13.944Z,6.65
2019-04-11T01:32:16.030Z,6.55
2019-04-11T01:37:17.710Z,6.73
2019-04-11T01:42:19.521Z,6.90
2019-04-11T01:47:39.680Z,6.98
2019-04-11T01:52:42.427Z,6.95
2019-04-11T01:57:44.708Z,6.86
2019-04-11T02:02:52.826Z,6.85
2019-04-11T02:07:55.305Z,6.94
2019-04-11T02:12:57.450Z,6.87
2019-04-11T02:17:59.296Z,6.82
2019-04-11T02:23:09.507Z,6.69
2019-04-11T02:28:12.928Z,6.56
2019-04-11T02:33:16.362Z,6.50
2019-04-11T02:38:19.001Z,6.43
2019-04-11T02:43:22.748Z,6.37
2019-04-11T02:48:24.627Z,6.35
2019-04-11T02:53:28.162Z,6.37
2019-04-11T02:58:31.842Z,6.31
2019-04-11T03:03:34.224Z,6.24
2019-04-11T03:08:36.659Z,6.17
2019-04-11T03:13:39.799Z,6.14
2019-04-11T03:18:59.442Z,6.08
2019-04-11T03:23:46.683Z,6.05
2019-04-11T03:28:50.278Z,5.94
2019-04-11T03:34:42.462Z,5.67
2019-04-11T03:39:14.955Z,5.55
2019-04-11T03:44:09.592Z,5.86
2019-04-11T03:49:14.777Z,5.85
2019-04-11T03:54:07.556Z,5.82
2019-04-11T03:59:12.454Z,5.77
2019-04-11T04:04:15.494Z,5.66
2019-04-11T04:09:19.382Z,5.60
2019-04-11T04:14:41.022Z,5.56
2019-04-11T04:19:59.551Z,5.48
2019-04-11T04:25:03.742Z,5.39
2019-04-11T04:30:06.060Z,5.36
2019-04-11T04:35:12.788Z,5.30
2019-04-11T04:40:28.336Z,5.31
2019-04-11T04:45:16.298Z,5.27
2019-04-11T04:50:19.781Z,5.29
2019-04-11T04:55:23.383Z,5.23
2019-04-11T05:00:27.191Z,5.14
2019-04-11T05:05:30.803Z,5.17
2019-04-11T05:10:32.791Z,5.20
2019-04-11T05:15:34.603Z,5.24
2019-04-11T05:20:36.424Z,5.31
2019-04-11T05:25:39.070Z,5.30
2019-04-11T05:30:41.902Z,5.37
2019-04-11T05:35:43.818Z,5.39
2019-04-11T05:40:46.127Z,5.37
2019-04-11T05:45:48.487Z,5.34
2019-04-11T05:50:53.053Z,5.41
2019-04-11T05:55:55.534Z,5.44
2019-04-11T06:01:01.377Z,5.37
2019-04-11T06:06:24.892Z,5.38
2019-04-11T06:11:35.586Z,5.50
2019-04-11T06:16:43.593Z,5.61
2019-04-11T06:21:47.014Z,5.65
2019-04-11T06:27:15.342Z,5.48
2019-04-11T06:32:40.272Z,5.52
2019-04-11T06:38:02.666Z,5.62
2019-04-11T06:43:18.597Z,5.76
2019-04-11T06:48:45.637Z,5.67
2019-04-11T06:54:06.832Z,5.64
2019-04-11T06:59:12.453Z,5.79
2019-04-11T07:04:19.762Z,5.99
2019-04-11T07:09:39.457Z,5.93
2019-04-11T07:14:48.611Z,5.98
2019-04-11T07:20:06.763Z,6.16
2019-04-11T07:25:33.426Z,6.27
2019-04-11T07:30:53.862Z,6.31
2019-04-11T07:36:14.660Z,6.38
2019-04-11T07:41:34.330Z,6.50
2019-04-11T07:46:44.621Z,6.51
2019-04-11T07:51:53.564Z,6.54
2019-04-11T07:57:04.113Z,6.67
2019-04-11T08:02:24.500Z,6.79
2019-04-11T08:07:44.844Z,6.93
2019-04-11T08:12:47.866Z,7.01
2019-04-11T08:17:50.122Z,7.03
2019-04-11T08:22:57.224Z,7.09
2019-04-11T08:28:04.127Z,7.22
2019-04-11T08:33:04.607Z,7.31
2019-04-11T08:38:10.130Z,7.38
2019-04-11T08:43:15.636Z,7.53
2019-04-11T08:48:17.506Z,7.61
2019-04-11T08:53:33.016Z,7.54
2019-04-11T08:59:06.068Z,7.50
2019-04-11T09:04:21.908Z,7.58
2019-04-11T09:09:49.609Z,7.70
2019-04-11T09:15:08.598Z,7.66
2019-04-11T09:20:29.781Z,7.69
2019-04-11T09:25:52.958Z,7.85
2019-04-11T09:31:06.352Z,7.87
2019-04-11T09:36:26.609Z,7.88
2019-04-11T09:41:50.474Z,7.98
2019-04-11T09:47:11.203Z,7.95
2019-04-11T09:52:23.494Z,7.85
2019-04-11T09:57:34.740Z,7.87
2019-04-11T10:03:02.254Z,7.93
2019-04-11T10:08:22.471Z,8.10
2019-04-11T10:13:51.580Z,8.17
2019-04-11T10:19:11.716Z,8.13
2019-04-11T10:24:36.748Z,8.13
2019-04-11T10:29:56.814Z,8.10
2019-04-11T10:35:18.489Z,8.19
2019-04-11T10:40:44.188Z,8.17
2019-04-11T10:46:03.921Z,8.27
2019-04-11T10:51:20.617Z,8.36
2019-04-11T10:56:30.876Z,8.47
2019-04-11T11:01:58.377Z,8.58
2019-04-11T11:07:04.475Z,8.54
2019-04-11T11:12:32.861Z,8.35
2019-04-11T11:18:22.293Z,8.17
2019-04-11T11:23:13.768Z,8.18
2019-04-11T11:28:17.823Z,8.17
2019-04-11T11:33:22.200Z,8.27
2019-04-11T11:38:26.061Z,8.43
2019-04-11T11:43:30.917Z,8.62
2019-04-11T11:48:35.678Z,8.59
2019-04-11T11:53:46.943Z,8.61
2019-04-11T11:59:03.245Z,8.73
2019-04-11T12:04:23.874Z,8.78
2019-04-11T12:09:59.191Z,8.84
2019-04-11T12:15:22.049Z,8.84
2019-04-11T12:20:27.670Z,8.87
2019-04-11T12:25:33.941Z,8.93
2019-04-11T12:30:41.962Z,8.96
2019-04-11T12:36:03.554Z,9.02
2019-04-11T12:41:20.452Z,8.95
2019-04-11T12:46:40.411Z,8.85
2019-04-11T12:52:10.501Z,8.94
2019-04-11T12:57:31.719Z,8.94
2019-04-11T13:02:52.986Z,8.95
2019-04-11T13:08:13.343Z,9.03
2019-04-11T13:13:31.817Z,9.02
2019-04-11T13:18:55.302Z,8.90
2019-04-11T13:24:19.368Z,8.98
2019-04-11T13:29:37.851Z,8.96
2019-04-11T13:34:40.464Z,8.87
2019-04-11T13:39:43.477Z,8.94
2019-04-11T13:44:45.044Z,8.94
2019-04-11T13:49:51.925Z,8.76
2019-04-11T13:55:11.596Z,8.69
2019-04-11T14:00:32.447Z,8.68
2019-04-11T14:05:36.275Z,8.74
2019-04-11T14:10:38.164Z,8.82
2019-04-11T14:15:41.313Z,8.81
2019-04-11T14:20:45.803Z,8.82
2019-04-11T14:26:01.893Z,8.89
2019-04-11T14:31:41.025Z,8.86
2019-04-11T14:36:54.712Z,8.74
2019-04-11T14:42:24.975Z,8.65
2019-04-11T14:47:46.384Z,8.66
2019-04-11T14:53:20.005Z,8.61
2019-04-11T14:58:38.280Z,8.49
2019-04-11T15:03:53.723Z,8.53
2019-04-11T15:09:24.235Z,8.56
2019-04-11T15:14:47.522Z,8.54
2019-04-11T15:19:51.985Z,8.54
2019-04-11T15:24:57.300Z,8.50
2019-04-11T15:30:00.302Z,8.45
2019-04-11T15:35:05.168Z,8.36
2019-04-11T15:40:19.858Z,8.29
2019-04-11T15:45:30.000Z,8.24
2019-04-11T15:50:51.269Z,8.15
2019-04-11T15:56:30.690Z,8.04
2019-04-11T16:02:03.995Z,8.15
2019-04-11T16:07:31.252Z,8.25
2019-04-11T16:12:40.625Z,8.21
2019-04-11T16:18:00.249Z,8.25
2019-04-11T16:23:18.825Z,8.24
2019-04-11T16:28:55.877Z,8.11
2019-04-11T16:34:08.236Z,8.09
2019-04-11T16:39:44.920Z,8.08
2019-04-11T16:45:18.332Z,8.06
2019-04-11T16:50:20.013Z,8.00
2019-04-11T16:55:21.662Z,8.00
2019-04-11T17:00:23.252Z,7.90
2019-04-11T17:05:26.824Z,7.93
2019-04-11T17:10:46.781Z,7.85
2019-04-11T17:15:48.362Z,7.86
2019-04-11T17:20:49.977Z,7.89
2019-04-11T17:25:54.623Z,7.85
2019-04-11T17:30:56.263Z,7.90
2019-04-11T17:36:02.028Z,7.93
2019-04-11T17:41:01.340Z,7.92
2019-04-11T17:46:03.064Z,7.88
2019-04-11T17:51:05.656Z,7.72
2019-04-11T17:56:07.469Z,7.75
2019-04-11T18:01:09.207Z,7.70
2019-04-11T18:06:10.800Z,7.71
2019-04-11T18:11:12.387Z,7.74
2019-04-11T18:16:14.071Z,7.71
2019-04-11T18:21:15.671Z,7.65
2019-04-11T18:26:19.098Z,7.61
2019-04-11T18:31:24.765Z,7.60
2019-04-11T18:36:24.498Z,7.56
2019-04-11T18:41:26.303Z,7.51
2019-04-11T18:46:27.962Z,7.44
2019-04-11T18:51:30.516Z,7.43
2019-04-11T18:56:32.163Z,7.43
2019-04-11T19:01:33.883Z,7.38
2019-04-11T19:06:35.551Z,7.36
2019-04-11T19:11:37.199Z,7.38
2019-04-11T19:16:38.878Z,7.30
2019-04-11T19:21:40.625Z,7.15
2019-04-11T19:26:46.101Z,7.08
2019-04-11T19:31:45.702Z,7.06
2019-04-11T19:36:47.281Z,7.15
2019-04-11T19:41:48.991Z,7.21
2019-04-11T19:46:51.731Z,7.14
2019-04-11T19:51:53.466Z,7.18
2019-04-11T19:57:01.501Z,7.17
2019-04-11T20:02:03.442Z,7.12
2019-04-11T20:07:05.077Z,7.08
2019-04-11T20:12:06.758Z,7.12
2019-04-11T20:17:09.246Z,7.09
2019-04-11T20:22:10.942Z,7.15
2019-04-11T20:27:12.500Z,7.14
2019-04-11T20:32:14.125Z,7.10
2019-04-11T20:37:17.730Z,7.04
2019-04-11T20:42:19.296Z,7.09
2019-04-11T20:47:20.837Z,7.03
2019-04-11T20:52:22.385Z,7.01
2019-04-11T20:57:25.940Z,7.03
2019-04-11T21:02:29.085Z,7.06
2019-04-11T21:07:31.964Z,6.87
2019-04-11T21:12:37.021Z,6.83
2019-04-11T21:17:37.658Z,6.96
2019-04-11T21:22:39.231Z,6.90
2019-04-11T21:27:40.775Z,6.97
2019-04-11T21:32:42.334Z,6.95
2019-04-11T21:37:43.983Z,6.95
2019-04-11T21:42:45.544Z,6.95
2019-04-11T21:47:47.106Z,7.03
2019-04-11T21:52:48.677Z,6.99
2019-04-11T21:57:50.263Z,7.08
2019-04-11T22:02:54.418Z,7.03
2019-04-11T22:07:55.717Z,6.95
2019-04-11T22:12:57.403Z,6.92
2019-04-11T22:17:59.056Z,6.93
2019-04-11T22:23:00.647Z,6.86
2019-04-11T22:28:02.358Z,6.87
2019-04-11T22:33:09.936Z,6.88
2019-04-11T22:38:11.499Z,6.85
2019-04-11T22:43:24.071Z,6.78
2019-04-11T22:48:16.675Z,6.61
2019-04-11T22:53:18.245Z,6.60
2019-04-11T22:58:19.902Z,6.69
2019-04-11T23:03:41.129Z,6.76
2019-04-11T23:08:42.714Z,6.81
2019-04-11T23:13:45.719Z,6.81
2019-04-11T23:18:47.752Z,6.80
2019-04-11T23:23:49.320Z,6.79
2019-04-11T23:28:50.885Z,6.72
2019-04-11T23:33:52.676Z,6.70
2019-04-11T23:38:54.403Z,6.75
2019-04-11T23:43:55.984Z,6.72
2019-04-11T23:48:57.676Z,6.56
2019-04-11T23:53:59.893Z,6.50
2019-04-11T23:59:02.604Z,6.53
